Muskoka Airport
CYQA : now visible

Airfield :











YOU CAN JOIN US ON...

 
LOGIN :

Register | Disclaimer

   EN    FR    IT 

 









Legend :    VFR   Marginal VFR   IFR   Intensive IFR   Very Intensive IFR
Visi :
Ceiling :
>= 8 km
>= 3000ft
5 to 8 km
1000 to 3000 ft
1500m to 5 km
500 to 1000 ft
800 to 1500m
200 to 500 ft
< 800m
< 200 ft
Symbols :   Thunderstorms  Fog  Heavy snow  Heavy precipitations  Wind > 20 kt







- Airport Elevation : 925 ft
- IATA code : YQA


CYQA - Muskoka

CURRENT METAR :
  • 211646Z AUTO VRB03KT 9SM OVC012 09/07 A3001 RMK SLP171

EXPIRED METARs :
  • 211600Z AUTO 04003KT 010V090 9SM OVC009 08/07 A2999 RMK SLP167
  • 211531Z AUTO 36003KT 280V020 9SM BKN009 OVC015 08/06 A2999 RMK SLP167
  • 211524Z AUTO 32004KT 240V350 9SM BKN007 OVC010 07/06 A2999 RMK SLP166
  • 211507Z AUTO 30005KT 250V330 7SM OVC004 07/07 A2998 RMK SLP163
  • 211503Z AUTO 27003KT 250V310 3SM BR OVC004 07/06 A2998 RMK SLP162
  • 211436Z AUTO 28005KT 260V330 2 1/4SM BR BKN004 OVC010 07/06 A2997 RMK VIS VRB 1-3 SLP158
  • 211406Z AUTO 27003KT 240V310 7SM OVC002 06/06 A2995 RMK SLP153

TAF AMD TAF CYQA
Valid from the 21 at 15:00 until the 22 at 02:00 UTC


211519Z 2115/2202 30006KT 5SM BR BKN004 OVC020
TEMPO 2115/2118 P6SM NSW FEW005 SCT020
FM211800 29005KT P6SM FEW012 SCT030 BKN090
TEMPO 2118/2120 BKN012 RMK FCST BASED ON AUTO OBS. NXT FCST BY 212000Z
CZYZ FIR / North America



MET'MAP, your aeronautical weather chart ! - Copyright ORBIFLY December 2007 - Disclaimer

ORBIFLY MET'MAP TEAM :

Programming & Development : Alexandra Zaïnal
Concept & Development : Baudouin d'Aumeries
Co-Development & Prog : Marc-Olivier Méhu
Technical & hardware support : Manuel Goepfert

Contact : metmap@orbifly.com




SOURCES & CREDITS :

   NOAA       Earth
Advisory